createdAt,value
2023-01-10T00:01:34.057Z,7.00
2023-01-10T00:04:00.974Z,7.00
2023-01-10T00:06:28.100Z,7.10
2023-01-10T00:08:57.312Z,7.10
2023-01-10T00:11:43.468Z,7.00
2023-01-10T00:14:11.581Z,7.00
2023-01-10T00:16:39.607Z,7.00
2023-01-10T00:19:08.604Z,7.00
2023-01-10T00:21:35.978Z,7.10
2023-01-10T00:24:17.198Z,7.10
2023-01-10T00:26:51.175Z,7.10
2023-01-10T00:29:20.367Z,7.10
2023-01-10T00:31:48.182Z,7.10
2023-01-10T00:34:15.284Z,7.10
2023-01-10T00:36:42.472Z,7.20
2023-01-10T00:39:11.372Z,7.10
2023-01-10T00:41:58.126Z,7.10
2023-01-10T00:44:26.084Z,7.10
2023-01-10T00:46:54.122Z,7.10
2023-01-10T00:49:21.180Z,7.10
2023-01-10T00:51:48.573Z,7.10
2023-01-10T00:54:15.594Z,7.10
2023-01-10T00:56:42.730Z,7.20
2023-01-10T00:59:10.065Z,7.20
2023-01-10T01:01:37.318Z,7.20
2023-01-10T01:04:04.658Z,7.20
2023-01-10T01:06:31.577Z,7.20
2023-01-10T01:08:58.614Z,7.20
2023-01-10T01:11:26.352Z,7.10
2023-01-10T01:13:53.399Z,7.10
2023-01-10T01:16:21.375Z,7.20
2023-01-10T01:18:48.689Z,7.20
2023-01-10T01:21:15.679Z,7.20
2023-01-10T01:23:42.627Z,7.20
2023-01-10T01:26:10.978Z,7.10
2023-01-10T01:28:38.623Z,7.10
2023-01-10T01:31:09.813Z,7.00
2023-01-10T01:33:37.898Z,7.10
2023-01-10T01:36:10.900Z,7.10
2023-01-10T01:38:39.530Z,7.10
2023-01-10T01:41:27.386Z,7.20
2023-01-10T01:44:15.303Z,7.20
2023-01-10T01:46:45.725Z,7.20
2023-01-10T01:49:22.283Z,7.30
2023-01-10T01:51:57.954Z,7.30
2023-01-10T01:54:26.920Z,7.20
2023-01-10T01:57:00.993Z,7.20
2023-01-10T01:59:37.823Z,7.10
2023-01-10T02:02:17.638Z,7.10
2023-01-10T02:05:09.516Z,7.10
2023-01-10T02:07:39.375Z,7.10
2023-01-10T02:10:26.086Z,7.10
2023-01-10T02:12:56.305Z,7.00
2023-01-10T02:15:23.498Z,7.10
2023-01-10T02:17:53.264Z,7.10
2023-01-10T02:20:22.688Z,7.10
2023-01-10T02:23:08.773Z,7.10
2023-01-10T02:26:08.905Z,7.10
2023-01-10T02:29:03.456Z,7.10
2023-01-10T02:32:42.022Z,7.10
2023-01-10T02:36:09.015Z,7.10
2023-01-10T02:38:43.840Z,7.10
2023-01-10T02:41:26.684Z,7.20
2023-01-10T02:44:09.499Z,7.20
2023-01-10T02:46:39.062Z,7.20
2023-01-10T02:49:06.244Z,7.20
2023-01-10T02:51:33.655Z,7.10
2023-01-10T02:54:08.439Z,7.20
2023-01-10T02:56:47.737Z,7.20
2023-01-10T02:59:44.655Z,7.20
2023-01-10T03:03:03.003Z,7.20
2023-01-10T03:06:29.015Z,7.20
2023-01-10T03:09:47.645Z,7.10
2023-01-10T03:12:37.880Z,7.10
2023-01-10T03:15:07.109Z,7.10
2023-01-10T03:17:35.025Z,7.10
2023-01-10T03:20:07.328Z,7.10
2023-01-10T03:22:38.220Z,7.10
2023-01-10T03:25:10.191Z,7.20
2023-01-10T03:27:54.261Z,7.10
2023-01-10T03:30:33.246Z,7.20
2023-01-10T03:33:00.804Z,7.10
2023-01-10T03:36:00.945Z,7.10
2023-01-10T03:38:56.219Z,7.10
2023-01-10T03:41:35.093Z,7.00
2023-01-10T03:44:39.114Z,6.90
2023-01-10T03:47:31.147Z,6.90
2023-01-10T03:50:05.132Z,6.90
2023-01-10T03:52:34.824Z,6.90
2023-01-10T03:55:03.413Z,6.90
2023-01-10T03:57:30.280Z,6.90
2023-01-10T03:59:58.984Z,6.90
2023-01-10T04:02:29.348Z,6.90
2023-01-10T04:04:57.073Z,6.80
2023-01-10T04:07:24.189Z,6.80
2023-01-10T04:09:51.518Z,6.70
2023-01-10T04:12:18.647Z,6.60
2023-01-10T04:14:47.197Z,6.60
2023-01-10T04:17:16.060Z,6.70
2023-01-10T04:19:43.239Z,6.70
2023-01-10T04:22:11.455Z,6.80
2023-01-10T04:24:38.965Z,6.80
2023-01-10T04:27:06.137Z,6.80
2023-01-10T04:29:33.183Z,6.80
2023-01-10T04:32:01.148Z,6.80
2023-01-10T04:34:28.260Z,6.80
2023-01-10T04:36:55.793Z,6.70
2023-01-10T04:39:23.790Z,6.80
2023-01-10T04:41:50.738Z,6.90
2023-01-10T04:44:17.922Z,6.90
2023-01-10T04:46:45.569Z,7.00
2023-01-10T04:49:12.770Z,7.10
2023-01-10T04:51:40.702Z,7.00
2023-01-10T04:54:07.795Z,7.10
2023-01-10T04:56:35.123Z,7.10
2023-01-10T04:59:02.263Z,7.10
2023-01-10T05:01:29.447Z,7.10
2023-01-10T05:03:57.085Z,7.10
2023-01-10T05:06:25.374Z,7.10
2023-01-10T05:08:53.350Z,7.00
2023-01-10T05:11:20.500Z,7.00
2023-01-10T05:13:48.287Z,7.10
2023-01-10T05:16:16.115Z,7.10
2023-01-10T05:18:43.658Z,7.00
2023-01-10T05:21:13.706Z,7.00
2023-01-10T05:23:40.999Z,7.00
2023-01-10T05:26:17.781Z,6.90
2023-01-10T05:28:45.128Z,6.90
2023-01-10T05:31:15.185Z,6.80
2023-01-10T05:33:50.517Z,6.90
2023-01-10T05:36:19.043Z,7.00
2023-01-10T05:38:46.557Z,7.00
2023-01-10T05:41:13.660Z,6.90
2023-01-10T05:43:40.639Z,6.90
2023-01-10T05:46:07.805Z,6.90
2023-01-10T05:48:35.077Z,6.90
2023-01-10T05:51:02.337Z,6.90
2023-01-10T05:53:29.625Z,6.90
2023-01-10T05:56:01.885Z,6.90
2023-01-10T05:58:29.745Z,6.90
2023-01-10T06:00:58.311Z,6.90
2023-01-10T06:03:26.719Z,6.90
2023-01-10T06:05:55.277Z,6.90
2023-01-10T06:08:23.181Z,6.90
2023-01-10T06:10:50.745Z,6.80
2023-01-10T06:13:18.074Z,6.90
2023-01-10T06:15:45.267Z,6.90
2023-01-10T06:18:12.731Z,6.90
2023-01-10T06:20:43.909Z,6.80
2023-01-10T06:23:10.901Z,6.90
2023-01-10T06:25:40.785Z,6.90
2023-01-10T06:28:09.698Z,6.90
2023-01-10T06:30:37.330Z,6.90
2023-01-10T06:33:07.576Z,7.00
2023-01-10T06:35:36.212Z,7.00
2023-01-10T06:38:03.960Z,7.00
2023-01-10T06:40:31.056Z,6.90
2023-01-10T06:42:59.187Z,6.90
2023-01-10T06:45:26.428Z,7.00
2023-01-10T06:47:53.700Z,7.00
2023-01-10T06:50:20.653Z,7.10
2023-01-10T06:53:01.289Z,7.10
2023-01-10T06:55:28.901Z,7.10
2023-01-10T06:58:05.074Z,7.00
2023-01-10T07:00:32.382Z,7.00
2023-01-10T07:03:00.239Z,7.00
2023-01-10T07:05:27.486Z,6.90
2023-01-10T07:07:54.428Z,6.90
2023-01-10T07:10:21.644Z,6.90
2023-01-10T07:12:48.548Z,6.90
2023-01-10T07:15:15.998Z,6.90
2023-01-10T07:17:42.917Z,7.00
2023-01-10T07:20:11.069Z,7.00
2023-01-10T07:22:38.318Z,6.80
2023-01-10T07:25:06.123Z,6.80
2023-01-10T07:27:33.688Z,6.80
2023-01-10T07:30:01.374Z,6.90
2023-01-10T07:32:28.509Z,6.90
2023-01-10T07:34:55.397Z,7.00
2023-01-10T07:37:22.412Z,7.00
2023-01-10T07:39:49.767Z,7.00
2023-01-10T07:42:16.932Z,7.00
2023-01-10T07:44:43.977Z,7.00
2023-01-10T07:47:11.113Z,7.10
2023-01-10T07:49:38.172Z,7.10
2023-01-10T07:52:07.795Z,7.00
2023-01-10T07:54:36.065Z,7.00
2023-01-10T07:57:03.327Z,6.90
2023-01-10T07:59:30.260Z,7.00
2023-01-10T08:01:57.538Z,7.10
2023-01-10T08:04:24.586Z,7.10
2023-01-10T08:06:54.596Z,7.10
2023-01-10T08:09:21.621Z,7.20
2023-01-10T08:11:48.528Z,7.10
2023-01-10T08:14:16.319Z,7.10
2023-01-10T08:16:43.201Z,7.10
2023-01-10T08:19:12.430Z,7.20
2023-01-10T08:21:39.619Z,7.20
2023-01-10T08:24:07.044Z,7.10
2023-01-10T08:26:34.205Z,7.10
2023-01-10T08:29:01.702Z,7.10
2023-01-10T08:31:28.804Z,7.10
2023-01-10T08:33:56.780Z,7.10
2023-01-10T08:36:24.270Z,7.20
2023-01-10T08:38:53.365Z,7.20
2023-01-10T08:41:20.432Z,7.20
2023-01-10T08:43:50.648Z,7.30
2023-01-10T08:46:20.127Z,7.30
2023-01-10T08:48:48.549Z,7.40
2023-01-10T08:51:16.099Z,7.50
2023-01-10T08:53:43.286Z,7.50
2023-01-10T08:56:11.358Z,7.50
2023-01-10T08:58:38.934Z,7.50
2023-01-10T09:01:08.182Z,7.50
2023-01-10T09:03:35.565Z,7.50
2023-01-10T09:06:02.997Z,7.50
2023-01-10T09:08:29.939Z,7.50
2023-01-10T09:11:02.349Z,7.50
2023-01-10T09:13:30.007Z,7.50
2023-01-10T09:15:59.176Z,7.50
2023-01-10T09:18:27.136Z,7.50
2023-01-10T09:20:54.596Z,7.60
2023-01-10T09:23:23.641Z,7.60
2023-01-10T09:25:54.630Z,7.50
2023-01-10T09:28:26.672Z,7.50
2023-01-10T09:30:53.733Z,7.50
2023-01-10T09:33:20.855Z,7.50
2023-01-10T09:35:48.160Z,7.50
2023-01-10T09:38:19.069Z,7.60
2023-01-10T09:41:08.606Z,7.50
2023-01-10T09:44:06.207Z,7.50
2023-01-10T09:47:21.630Z,7.60
2023-01-10T09:50:25.251Z,7.70
2023-01-10T09:53:29.459Z,7.70
2023-01-10T09:55:59.969Z,7.80
2023-01-10T09:58:31.172Z,7.80
2023-01-10T10:01:07.193Z,7.80
2023-01-10T10:03:54.381Z,7.80
2023-01-10T10:06:23.550Z,7.90
2023-01-10T10:08:52.211Z,7.90
2023-01-10T10:11:45.223Z,7.70
2023-01-10T10:14:24.738Z,7.70
2023-01-10T10:17:06.907Z,7.70
2023-01-10T10:20:11.088Z,7.60
2023-01-10T10:22:46.660Z,7.60
2023-01-10T10:25:45.800Z,7.70
2023-01-10T10:28:53.583Z,7.70
2023-01-10T10:31:53.993Z,7.70
2023-01-10T10:34:37.472Z,7.60
2023-01-10T10:37:17.406Z,7.70
2023-01-10T10:40:01.569Z,7.80
2023-01-10T10:42:36.439Z,7.80
2023-01-10T10:45:47.956Z,7.90
2023-01-10T10:48:24.069Z,8.00
2023-01-10T10:51:02.168Z,7.90
2023-01-10T10:53:32.109Z,8.00
2023-01-10T10:56:00.444Z,8.10
2023-01-10T10:58:30.826Z,8.10
2023-01-10T11:01:00.711Z,8.10
2023-01-10T11:03:45.643Z,8.20
2023-01-10T11:06:14.921Z,8.20
2023-01-10T11:08:45.765Z,8.20
2023-01-10T11:11:30.261Z,8.20
2023-01-10T11:14:01.297Z,8.20
2023-01-10T11:16:39.009Z,8.30
2023-01-10T11:19:14.583Z,8.30
2023-01-10T11:21:49.964Z,8.40
2023-01-10T11:24:44.260Z,8.40
2023-01-10T11:27:43.772Z,8.40
2023-01-10T11:30:28.602Z,8.50
2023-01-10T11:33:06.144Z,8.50
2023-01-10T11:35:37.395Z,8.50
2023-01-10T11:38:13.417Z,8.60
2023-01-10T11:40:58.753Z,8.60
2023-01-10T11:43:39.549Z,8.60
2023-01-10T11:46:16.545Z,8.50
2023-01-10T11:49:08.030Z,8.50
2023-01-10T11:51:52.046Z,8.50
2023-01-10T11:54:25.799Z,8.60
2023-01-10T11:57:08.821Z,8.50
2023-01-10T11:59:36.125Z,8.50
2023-01-10T12:02:27.795Z,8.50
2023-01-10T12:04:57.162Z,8.60
2023-01-10T12:07:24.130Z,8.70
2023-01-10T12:10:01.231Z,8.60
2023-01-10T12:12:31.623Z,8.70
2023-01-10T12:15:02.476Z,8.80
2023-01-10T12:17:36.704Z,8.80
2023-01-10T12:20:07.044Z,8.80
2023-01-10T12:22:45.989Z,8.80
2023-01-10T12:25:21.412Z,8.80
2023-01-10T12:27:51.952Z,8.80
2023-01-10T12:30:49.899Z,8.80
2023-01-10T12:33:27.293Z,8.60
2023-01-10T12:36:06.898Z,8.40
2023-01-10T12:38:58.917Z,8.30
2023-01-10T12:42:23.286Z,8.30
2023-01-10T12:45:03.370Z,8.40
2023-01-10T12:47:55.863Z,8.40
2023-01-10T12:50:41.415Z,8.40
2023-01-10T12:53:35.728Z,8.40
2023-01-10T12:56:07.910Z,8.40
2023-01-10T12:58:49.224Z,8.40
2023-01-10T13:01:21.861Z,8.40
2023-01-10T13:03:59.337Z,8.40
2023-01-10T13:06:39.229Z,8.40
2023-01-10T13:09:17.108Z,8.30
2023-01-10T13:11:57.307Z,8.30
2023-01-10T13:15:17.684Z,8.30
2023-01-10T13:17:59.776Z,8.30
2023-01-10T13:20:41.978Z,8.30
2023-01-10T13:23:33.342Z,8.30
2023-01-10T13:26:09.295Z,8.20
2023-01-10T13:28:40.861Z,8.30
2023-01-10T13:31:32.896Z,8.20
2023-01-10T13:34:13.832Z,8.20
2023-01-10T13:37:28.894Z,8.20
2023-01-10T13:39:59.926Z,8.10
2023-01-10T13:42:52.325Z,8.00
2023-01-10T13:45:29.054Z,8.00
2023-01-10T13:47:57.182Z,8.00
2023-01-10T13:50:24.667Z,8.10
2023-01-10T13:52:52.067Z,8.10
2023-01-10T13:55:40.083Z,8.20
2023-01-10T13:58:09.689Z,8.20
2023-01-10T14:00:55.292Z,8.20
2023-01-10T14:03:50.677Z,8.20
2023-01-10T14:06:30.018Z,8.20
2023-01-10T14:09:22.146Z,8.20
2023-01-10T14:11:55.475Z,8.20
2023-01-10T14:14:41.617Z,8.20
2023-01-10T14:17:24.251Z,8.20
2023-01-10T14:20:16.275Z,8.20
2023-01-10T14:23:03.381Z,8.20
2023-01-10T14:25:34.222Z,8.30
2023-01-10T14:28:02.412Z,8.20
2023-01-10T14:30:35.273Z,8.10
2023-01-10T14:33:15.497Z,8.10
2023-01-10T14:35:51.146Z,8.20
2023-01-10T14:38:31.824Z,8.20
2023-01-10T14:41:15.668Z,8.20
2023-01-10T14:44:13.690Z,8.20
2023-01-10T14:46:49.338Z,8.20
2023-01-10T14:49:23.570Z,8.10
2023-01-10T14:51:51.702Z,8.10
2023-01-10T14:54:23.445Z,8.10
2023-01-10T14:56:53.440Z,8.00
2023-01-10T14:59:30.642Z,8.00
2023-01-10T15:02:29.936Z,7.90
2023-01-10T15:05:07.669Z,7.90
2023-01-10T15:07:36.150Z,7.90
2023-01-10T15:10:24.659Z,7.90
2023-01-10T15:12:56.539Z,8.00
2023-01-10T15:15:35.420Z,8.00
2023-01-10T15:18:28.172Z,8.00
2023-01-10T15:20:57.042Z,7.90
2023-01-10T15:23:27.505Z,7.90
2023-01-10T15:25:58.562Z,7.80
2023-01-10T15:28:29.948Z,7.90
2023-01-10T15:30:58.451Z,7.90
2023-01-10T15:33:32.876Z,7.80
2023-01-10T15:36:17.994Z,7.80
2023-01-10T15:38:47.930Z,7.70
2023-01-10T15:41:22.204Z,7.60
2023-01-10T15:43:50.726Z,7.60
2023-01-10T15:46:24.159Z,7.60
2023-01-10T15:49:02.753Z,7.50
2023-01-10T15:51:41.648Z,7.50
2023-01-10T15:54:21.624Z,7.40
2023-01-10T15:56:53.576Z,7.40
2023-01-10T15:59:37.040Z,7.30
2023-01-10T16:02:33.306Z,7.10
2023-01-10T16:05:17.919Z,7.10
2023-01-10T16:07:47.069Z,7.00
2023-01-10T16:10:23.001Z,6.90
2023-01-10T16:13:08.753Z,6.90
2023-01-10T16:15:41.883Z,6.90
2023-01-10T16:18:08.887Z,6.90
2023-01-10T16:20:40.255Z,6.90
2023-01-10T16:23:24.381Z,6.80
2023-01-10T16:25:58.835Z,6.80
2023-01-10T16:28:29.018Z,6.80
2023-01-10T16:30:56.007Z,6.80
2023-01-10T16:33:27.627Z,6.70
2023-01-10T16:35:57.535Z,6.80
2023-01-10T16:38:27.544Z,6.80
2023-01-10T16:41:22.016Z,6.90
2023-01-10T16:43:50.261Z,6.80
2023-01-10T16:46:17.843Z,6.80
2023-01-10T16:48:47.555Z,6.80
2023-01-10T16:51:23.476Z,6.80
2023-01-10T16:53:51.315Z,6.80
2023-01-10T16:56:24.826Z,6.90
2023-01-10T16:58:53.732Z,6.80
2023-01-10T17:01:32.006Z,6.80
2023-01-10T17:03:59.902Z,6.80
2023-01-10T17:06:26.821Z,6.80
2023-01-10T17:08:53.834Z,6.70
2023-01-10T17:11:30.511Z,6.70
2023-01-10T17:13:59.531Z,6.70
2023-01-10T17:16:27.299Z,6.50
2023-01-10T17:18:54.424Z,6.50
2023-01-10T17:21:23.624Z,6.40
2023-01-10T17:23:51.174Z,6.40
2023-01-10T17:26:19.855Z,6.50
2023-01-10T17:28:49.389Z,6.50
2023-01-10T17:31:19.502Z,6.50
2023-01-10T17:33:48.892Z,6.60
2023-01-10T17:36:18.909Z,6.60
2023-01-10T17:38:46.204Z,6.60
2023-01-10T17:41:13.451Z,6.60
2023-01-10T17:43:40.539Z,6.60
2023-01-10T17:46:07.893Z,6.70
2023-01-10T17:48:35.753Z,6.70
2023-01-10T17:51:04.166Z,6.80
2023-01-10T17:53:31.213Z,6.90
2023-01-10T17:56:01.000Z,6.90
2023-01-10T17:58:30.028Z,6.90
2023-01-10T18:00:57.151Z,6.90
2023-01-10T18:03:24.627Z,6.90
2023-01-10T18:05:59.187Z,6.90
2023-01-10T18:08:27.015Z,7.00
2023-01-10T18:11:02.183Z,7.00
2023-01-10T18:13:32.279Z,7.00
2023-01-10T18:16:00.765Z,7.00
2023-01-10T18:18:28.849Z,7.00
2023-01-10T18:20:58.241Z,7.00
2023-01-10T18:23:26.678Z,7.10
2023-01-10T18:26:03.799Z,7.10
2023-01-10T18:28:41.730Z,7.00
2023-01-10T18:31:13.296Z,7.10
2023-01-10T18:33:40.694Z,7.10
2023-01-10T18:36:14.741Z,7.10
2023-01-10T18:38:42.092Z,7.10
2023-01-10T18:41:09.458Z,7.00
2023-01-10T18:43:39.828Z,7.00
2023-01-10T18:46:14.276Z,6.90
2023-01-10T18:48:41.656Z,6.80
2023-01-10T18:51:09.988Z,6.70
2023-01-10T18:53:37.039Z,6.70
2023-01-10T18:56:05.564Z,6.60
2023-01-10T18:58:36.162Z,6.60
2023-01-10T19:01:22.183Z,6.60
2023-01-10T19:03:50.867Z,6.60
2023-01-10T19:06:21.561Z,6.60
2023-01-10T19:08:54.425Z,6.60
2023-01-10T19:11:21.579Z,6.60
2023-01-10T19:13:52.028Z,6.60
2023-01-10T19:16:20.376Z,6.60
2023-01-10T19:18:53.752Z,6.60
2023-01-10T19:21:22.079Z,6.60
2023-01-10T19:23:57.322Z,6.60
2023-01-10T19:26:25.140Z,6.60
2023-01-10T19:28:53.489Z,6.70
2023-01-10T19:31:24.829Z,6.70
2023-01-10T19:33:53.051Z,6.70
2023-01-10T19:36:23.025Z,6.70
2023-01-10T19:38:55.712Z,6.70
2023-01-10T19:41:23.765Z,6.70
2023-01-10T19:43:56.837Z,6.70
2023-01-10T19:46:24.675Z,6.70
2023-01-10T19:48:52.521Z,6.70
2023-01-10T19:51:19.522Z,6.70
2023-01-10T19:53:47.834Z,6.70
2023-01-10T19:56:19.709Z,6.70
2023-01-10T19:58:47.703Z,6.60
2023-01-10T20:01:27.669Z,6.60
2023-01-10T20:03:58.436Z,6.60
2023-01-10T20:06:27.654Z,6.60
2023-01-10T20:08:55.280Z,6.50
2023-01-10T20:11:25.372Z,6.50
2023-01-10T20:13:53.122Z,6.50
2023-01-10T20:16:23.134Z,6.40
2023-01-10T20:18:51.643Z,6.40
2023-01-10T20:21:20.005Z,6.30
2023-01-10T20:23:47.602Z,6.20
2023-01-10T20:26:21.288Z,6.10
2023-01-10T20:28:50.402Z,6.10
2023-01-10T20:31:23.392Z,6.10
2023-01-10T20:33:51.270Z,6.00
2023-01-10T20:36:22.442Z,6.00
2023-01-10T20:38:50.794Z,5.90
2023-01-10T20:41:22.880Z,5.80
2023-01-10T20:43:50.754Z,5.80
2023-01-10T20:46:22.260Z,5.70
2023-01-10T20:48:50.749Z,5.60
2023-01-10T20:51:22.782Z,5.60
2023-01-10T20:53:51.010Z,5.50
2023-01-10T20:56:24.872Z,5.50
2023-01-10T20:58:53.032Z,5.40
2023-01-10T21:01:33.211Z,5.40
2023-01-10T21:04:02.650Z,5.40
2023-01-10T21:06:29.858Z,5.40
2023-01-10T21:08:56.935Z,5.40
2023-01-10T21:11:24.321Z,5.40
2023-01-10T21:13:51.468Z,5.40
2023-01-10T21:16:21.872Z,5.40
2023-01-10T21:18:49.168Z,5.40
2023-01-10T21:21:19.708Z,5.40
2023-01-10T21:23:46.945Z,5.50
2023-01-10T21:26:15.401Z,5.50
2023-01-10T21:28:48.485Z,5.50
2023-01-10T21:31:20.198Z,5.60
2023-01-10T21:33:49.030Z,5.60
2023-01-10T21:36:16.848Z,5.60
2023-01-10T21:38:45.153Z,5.70
2023-01-10T21:41:40.496Z,5.70
2023-01-10T21:44:08.544Z,5.70
2023-01-10T21:46:36.334Z,5.70
2023-01-10T21:49:04.903Z,5.70
2023-01-10T21:51:31.955Z,5.80
2023-01-10T21:53:59.254Z,5.70
2023-01-10T21:56:26.293Z,5.70
2023-01-10T21:58:53.430Z,5.60
2023-01-10T22:01:20.396Z,5.60
2023-01-10T22:03:47.487Z,5.60
2023-01-10T22:06:15.284Z,5.60
2023-01-10T22:08:42.321Z,5.60
2023-01-10T22:11:10.943Z,5.50
2023-01-10T22:13:38.938Z,5.40
2023-01-10T22:16:07.102Z,5.40
2023-01-10T22:18:34.189Z,5.40
2023-01-10T22:21:01.497Z,5.30
2023-01-10T22:23:31.201Z,5.30
2023-01-10T22:26:06.861Z,5.20
2023-01-10T22:28:34.672Z,5.20
2023-01-10T22:31:02.887Z,5.20
2023-01-10T22:33:32.866Z,5.20
2023-01-10T22:36:09.008Z,5.20
2023-01-10T22:38:36.199Z,5.20
2023-01-10T22:41:12.781Z,5.10
2023-01-10T22:43:39.915Z,5.10
2023-01-10T22:46:07.487Z,5.00
2023-01-10T22:48:38.513Z,5.00
2023-01-10T22:51:05.831Z,4.90
2023-01-10T22:53:33.865Z,4.80
2023-01-10T22:56:03.489Z,4.70
2023-01-10T22:58:30.882Z,4.70
2023-01-10T23:00:58.026Z,4.60
2023-01-10T23:03:25.291Z,4.60
2023-01-10T23:05:57.278Z,4.50
2023-01-10T23:08:25.527Z,4.50
2023-01-10T23:10:54.182Z,4.40
2023-01-10T23:13:23.516Z,4.40
2023-01-10T23:16:06.265Z,4.30
2023-01-10T23:18:34.235Z,4.30
2023-01-10T23:21:02.060Z,4.20
2023-01-10T23:23:31.071Z,4.20
2023-01-10T23:26:07.327Z,4.10
2023-01-10T23:28:47.044Z,4.10
2023-01-10T23:31:23.148Z,4.00
2023-01-10T23:33:51.683Z,4.00
2023-01-10T23:36:19.261Z,3.90
2023-01-10T23:38:46.345Z,3.90
2023-01-10T23:41:13.392Z,3.90
2023-01-10T23:43:40.410Z,3.80
2023-01-10T23:46:07.850Z,3.80
2023-01-10T23:48:35.403Z,3.80
2023-01-10T23:51:02.391Z,3.70
2023-01-10T23:53:29.360Z,3.70
2023-01-10T23:55:56.797Z,3.70
2023-01-10T23:58:23.963Z,3.70
